Dades meteomassalio
Diari Summary for Diciembre 15, 2017 Units:  Metric    English   Both
« Previous Day
Next Day »
Diari Semanal Mensual Anual Personalitzat
  Maxima: Minima: Mijana:
Temperatura: -17.8 °C -15.3 °C -12.9 °C
Rosada: -17.8 °C -17.7 °C -15.8 °C
Humitat: Humidity % 57 % 71 %
Velocitat del vent: 0 km/h 0 km/h 38.1 km/h
Racha vent: 0 km/h - -
Vent:- - WNW
Pressio: 0 hPa 34212.1 hPa -
Pluja: 7.62 mm    
Historical Graphs
 
 
Tabular Data for Diciembre 15, 2017
Time Temperature Dew Point Pressure Wind Wind Speed Wind Gust Humidity Rainfall Rate (Hourly) solar Conditions
-17.8 °C -17.8 °C 0 hPa Calm     Humidity % 0 mm SolarRadiationWatts/m^2 W/m2 Conditions
00:04 -14.1 °C -17.1 °C 34293.4 hPa Calm     68 % 0 mm 0.0 W/m2 CLR
00:09 -13.8 °C -16.7 °C 34293.4 hPa West 9 km/h 9 km/h 69 % 0 mm 0.0 W/m2 CLR
00:14 -13.8 °C -16.6 °C 34293.4 hPa WSW 9 km/h 9 km/h 70 % 0 mm 0.0 W/m2 CLR
00:19 -13.4 °C -16.4 °C 34279.9 hPa West 6 km/h 6 km/h 69 % 0 mm 0.0 W/m2 CLR
00:24 -13.4 °C -16.4 °C 34279.9 hPa Calm     69 % 0 mm 0.0 W/m2 CLR
00:29 -13.4 °C -16.3 °C 34279.9 hPa West 9 km/h 9 km/h 70 % 0 mm 0.0 W/m2 CLR
00:34 -13.4 °C -16.3 °C 34279.9 hPa West 15.6 km/h 15.6 km/h 70 % 0 mm 0.0 W/m2 CLR
00:39 -13.4 °C -16.4 °C 34279.9 hPa WNW 28.5 km/h 28.5 km/h 69 % 0 mm 0.0 W/m2 CLR
00:44 -13.4 °C -16.6 °C 34279.9 hPa WNW 18.2 km/h 18.2 km/h 68 % 0 mm 0.0 W/m2 CLR
00:49 -13.8 °C -16.9 °C 34279.9 hPa NW 29.8 km/h 29.8 km/h 67 % 0 mm 0.0 W/m2 CLR
00:54 -13.8 °C -17.1 °C 34269.7 hPa NW 29.8 km/h 29.8 km/h 66 % 0 mm 0.0 W/m2 CLR
00:59 -14.1 °C -17.3 °C 34269.7 hPa NW 38.8 km/h 38.8 km/h 66 % 0 mm 0.0 W/m2 CLR
01:04 -13.4 °C -16.9 °C 34269.7 hPa WNW 36.2 km/h 36.2 km/h 65 % 0 mm 0.0 W/m2 CLR
01:09 -12.8 °C -16.3 °C 34269.7 hPa WNW 29.8 km/h 29.8 km/h 65 % 0 mm 0.0 W/m2 CLR
01:14 -11.9 °C -15.3 °C 34269.7 hPa WNW 33.6 km/h 33.6 km/h 66 % 0 mm 0.0 W/m2 CLR
01:19 -11.3 °C -14.7 °C 34269.7 hPa NW 35.7 km/h 35.7 km/h 66 % 0 mm 0.0 W/m2 CLR
01:24 -11 °C -14.4 °C 34269.7 hPa NW 26.9 km/h 26.9 km/h 66 % 0 mm 0.0 W/m2 CLR
01:29 -11 °C -14.3 °C 34269.7 hPa NW 26.9 km/h 26.9 km/h 67 % 0 mm 0.0 W/m2 CLR
01:34 -11 °C -14.3 °C 34256.2 hPa NW 26.9 km/h 26.9 km/h 67 % 0 mm 0.0 W/m2 CLR
01:39 -11.3 °C -14.6 °C 34256.2 hPa NNW 29.8 km/h 29.8 km/h 67 % 0 mm 0.0 W/m2 CLR
01:44 -11.3 °C -14.5 °C 34256.2 hPa NW 35.7 km/h 35.7 km/h 68 % 0 mm 0.0 W/m2 CLR
01:49 -11 °C -14.3 °C 34256.2 hPa NW 32.8 km/h 32.8 km/h 67 % 0 mm 0.0 W/m2 CLR
01:54 -11 °C -14.2 °C 34256.2 hPa NW 26.9 km/h 26.9 km/h 68 % 0 mm 0.0 W/m2 CLR
01:59 -11 °C -14.2 °C 34256.2 hPa WNW 20.9 km/h 20.9 km/h 68 % 0 mm 0.0 W/m2 CLR
02:04 -11 °C -14.3 °C 34256.2 hPa WNW 7.7 km/h 7.7 km/h 67 % 0 mm 0.0 W/m2 CLR
02:12 -11.3 °C -14.5 °C 34246 hPa WNW 5.1 km/h 6.3 km/h 68 % 0 mm 0.0 W/m2 CLR
02:17 -11.6 °C -14.8 °C 34246 hPa NW 7.7 km/h 7.7 km/h 68 % 0 mm 0.0 W/m2 CLR
02:22 -11.9 °C -14.9 °C 34246 hPa NW 29.8 km/h 29.8 km/h 69 % 0 mm 0.0 W/m2 CLR
02:27 -12.2 °C -15.4 °C 34246 hPa NW 29.8 km/h 29.8 km/h 68 % 0 mm 0.0 W/m2 CLR
02:33 -11.9 °C -14.9 °C 34246 hPa NW 29.8 km/h 29.8 km/h 69 % 0 mm 0.0 W/m2 CLR
02:38 -11.6 °C -14.7 °C 34246 hPa WNW 9 km/h 9 km/h 69 % 0 mm 0.0 W/m2 CLR
02:48 -11.9 °C -14.9 °C 34246 hPa NW 20.9 km/h 20.9 km/h 69 % 0 mm 0.0 W/m2 CLR
02:53 -11.9 °C -14.9 °C 34246 hPa NW 20.9 km/h 20.9 km/h 69 % 0 mm 0.0 W/m2 CLR
02:58 -11.9 °C -14.8 °C 34246 hPa NW 26.9 km/h 26.9 km/h 70 % 0 mm 0.0 W/m2 CLR
03:03 -11.3 °C -14.3 °C 34256.2 hPa North 29.8 km/h 29.8 km/h 69 % 0 mm 0.0 W/m2 CLR
03:08 -10.7 °C -13.8 °C 34256.2 hPa NNE 32.8 km/h 32.8 km/h 69 % 0 mm 0.0 W/m2 CLR
03:13 -10.4 °C -13.3 °C 34269.7 hPa NNE 46.7 km/h 46.7 km/h 70 % 0 mm 0.0 W/m2 CLR
03:18 -10.4 °C -13.1 °C 34269.7 hPa North 44.7 km/h 44.7 km/h 72 % 0 mm 0.0 W/m2 CLR
03:23 -10.7 °C -12.9 °C 34279.9 hPa North 38.8 km/h 38.8 km/h 77 % 7.62 mm 0.0 W/m2 RA
03:28 -11 °C -12.9 °C 34279.9 hPa North 47.6 km/h 47.6 km/h 79 % 7.62 mm 0.0 W/m2
03:33 -11.3 °C -13.1 °C 34279.9 hPa NNW 38.8 km/h 38.8 km/h 81 % 7.62 mm 0.0 W/m2 CLR
03:38 -11.3 °C -12.8 °C 34279.9 hPa North 32.8 km/h 32.8 km/h 83 % 7.62 mm 0.0 W/m2 CLR
03:43 -11.3 °C -12.7 °C 34279.9 hPa NW 31.1 km/h 31.1 km/h 84 % 7.62 mm 0.0 W/m2 CLR
03:48 -11.6 °C -13.1 °C 34279.9 hPa North 44.7 km/h 44.7 km/h 84 % 7.62 mm 0.0 W/m2 CLR
03:54 -11.6 °C -12.9 °C 34279.9 hPa North 50.7 km/h 50.7 km/h 85 % 7.62 mm 0.0 W/m2 CLR
03:59 -11.6 °C -12.9 °C 34279.9 hPa NNW 32.8 km/h 32.8 km/h 86 % 7.62 mm 0.0 W/m2 CLR
04:04 -11.6 °C -12.9 °C 34269.7 hPa NNW 35.7 km/h 35.7 km/h 86 % 7.62 mm 0.0 W/m2 CLR
04:09 -11.6 °C -12.9 °C 34269.7 hPa NNW 41.7 km/h 41.7 km/h 86 % 7.62 mm 0.0 W/m2 CLR
04:13 -11.9 °C -13.2 °C 34269.7 hPa NW 44.7 km/h 44.7 km/h 86 % 7.62 mm 0.0 W/m2 CLR
04:19 -11.9 °C -13.2 °C 34269.7 hPa NW 31.1 km/h 31.1 km/h 86 % 7.62 mm 0.0 W/m2 CLR
04:24 -11.9 °C -13.2 °C 34269.7 hPa NW 26.9 km/h 26.9 km/h 86 % 0 mm 0.0 W/m2 CLR
04:29 -11.9 °C -13.1 °C 34256.2 hPa NW 33.6 km/h 33.6 km/h 87 % 0 mm 0.0 W/m2 CLR
04:34 -11.9 °C -13.1 °C 34256.2 hPa NNW 23.8 km/h 23.8 km/h 87 % 0 mm 0.0 W/m2 CLR
04:39 -11.9 °C -13.1 °C 34256.2 hPa NNW 23.8 km/h 23.8 km/h 87 % 0 mm 0.0 W/m2 CLR
04:44 -12.2 °C -13.4 °C 34256.2 hPa WNW 20.8 km/h 20.8 km/h 87 % 0 mm 0.0 W/m2 CLR
04:49 -12.2 °C -13.4 °C 34256.2 hPa NNW 23.8 km/h 23.8 km/h 87 % 0 mm 0.0 W/m2 CLR
04:59 -12.6 °C -13.7 °C 34246 hPa North 23.8 km/h 23.8 km/h 87 % 0 mm 0.0 W/m2 CLR
05:04 -12.6 °C -13.6 °C 34246 hPa NNW 23.3 km/h 23.3 km/h 88 % 0 mm 0.0 W/m2 CLR
05:09 -12.6 °C -13.6 °C 34235.8 hPa NW 28.5 km/h 28.5 km/h 88 % 0 mm 0.0 W/m2 CLR
05:14 -12.6 °C -13.6 °C 34235.8 hPa WNW 26.9 km/h 26.9 km/h 88 % 0 mm 0.0 W/m2 CLR
05:19 -12.6 °C -13.6 °C 34235.8 hPa NW 29.8 km/h 29.8 km/h 88 % 0 mm 0.0 W/m2 CLR
05:24 -12.6 °C -13.7 °C 34235.8 hPa WNW 26.9 km/h 26.9 km/h 87 % 0 mm 0.0 W/m2 CLR
05:29 -12.6 °C -13.7 °C 34222.3 hPa WNW 17.9 km/h 17.9 km/h 87 % 0 mm 0.0 W/m2 CLR
05:34 -12.8 °C -14 °C 34222.3 hPa WNW 23.8 km/h 23.8 km/h 87 % 0 mm 0.0 W/m2 CLR
05:39 -12.8 °C -14 °C 34222.3 hPa WNW 25.9 km/h 25.9 km/h 87 % 0 mm 0.0 W/m2 CLR
05:44 -12.8 °C -14 °C 34222.3 hPa West 29.8 km/h 29.8 km/h 87 % 0 mm 0.0 W/m2 CLR
05:49 -12.6 °C -13.7 °C 34222.3 hPa WNW 29.8 km/h 29.8 km/h 87 % 0 mm 0.0 W/m2 CLR
05:54 -12.8 °C -14 °C 34222.3 hPa WNW 29.8 km/h 29.8 km/h 87 % 0 mm 0.0 W/m2 CLR
05:58 -12.8 °C -14 °C 34222.3 hPa WNW 35.7 km/h 35.7 km/h 87 % 0 mm 0.0 W/m2 CLR
06:03 -12.8 °C -14 °C 34212.1 hPa WNW 29.8 km/h 29.8 km/h 87 % 0 mm 0.0 W/m2 CLR
06:08 -12.8 °C -14 °C 34212.1 hPa WNW 29.8 km/h 29.8 km/h 87 % 0 mm 0.0 W/m2 CLR
06:13 -12.8 °C -14 °C 34212.1 hPa WNW 29.8 km/h 29.8 km/h 87 % 0 mm 0.0 W/m2 CLR
06:18 -13.2 °C -14.3 °C 34212.1 hPa WNW 20.9 km/h 20.9 km/h 87 % 0 mm 0.0 W/m2 CLR
06:23 -13.2 °C -14.3 °C 34212.1 hPa WNW 23.8 km/h 23.8 km/h 87 % 0 mm 0.0 W/m2 CLR
06:28 -13.4 °C -14.6 °C 34212.1 hPa WNW 11.9 km/h   87 % 0 mm 0.0 W/m2 CLR
06:33 -13.4 °C -14.6 °C 34212.1 hPa NW 11.9 km/h 11.9 km/h 87 % 0 mm 0.0 W/m2 CLR
06:38 -13.4 °C -14.6 °C 34212.1 hPa Calm     87 % 0 mm 0.0 W/m2 CLR
06:43 -13.8 °C -14.9 °C 34212.1 hPa Calm     87 % 0 mm 0.0 W/m2 CLR
06:46 -14.1 °C -15.2 °C 34212.1 hPa Calm     87 % 0 mm 0.0 W/m2 CLR
06:51 -14.4 °C -15.5 °C 34212.1 hPa Calm     87 % 0 mm 0.0 W/m2 CLR
06:56 -14.7 °C -15.9 °C 34222.3 hPa Calm     86 % 0 mm 0.0 W/m2 CLR
07:02 -15 °C -16.1 °C 34222.3 hPa Calm     87 % 0 mm 0.0 W/m2 CLR
07:07 -15 °C -16.2 °C 34222.3 hPa Calm     86 % 0 mm 0.0 W/m2 CLR
07:12 -15.3 °C -16.4 °C 34222.3 hPa Calm     87 % 0 mm 0.0 W/m2 CLR
07:22 -15.3 °C -16.5 °C 34235.8 hPa Calm     86 % 0 mm 0.0 W/m2 CLR
07:27 -15.3 °C -16.5 °C 34235.8 hPa Calm     86 % 0 mm 0.0 W/m2 CLR
07:32 -15 °C -16.2 °C 34235.8 hPa NNW 23.8 km/h 23.8 km/h 86 % 0 mm 0.0 W/m2 CLR
07:37 -15 °C -16.2 °C 34235.8 hPa NW 23.8 km/h 23.8 km/h 86 % 0 mm 0.0 W/m2 CLR
07:42 -14.7 °C -15.9 °C 34235.8 hPa NW 20.9 km/h 20.9 km/h 86 % 0 mm 0.0 W/m2 CLR
07:47 -14.7 °C -15.9 °C 34235.8 hPa NW 20.9 km/h 20.9 km/h 86 % 0 mm 0.0 W/m2 CLR
07:57 -14.4 °C -15.7 °C 34235.8 hPa NNW 17.9 km/h 17.9 km/h 85 % 0 mm 0.0 W/m2 CLR
08:07 -14.1 °C -15.3 °C 34246 hPa NNW 26.9 km/h 26.9 km/h 86 % 0 mm 0.0 W/m2 OVC
08:12 -13.8 °C -15.1 °C 34246 hPa NW 20.9 km/h 20.9 km/h 85 % 0 mm 0.0 W/m2 OVC
08:17 -13.8 °C -15.2 °C 34246 hPa NNW 26.9 km/h 26.9 km/h 84 % 0 mm 0.0 W/m2 OVC
08:22 -13.4 °C -14.9 °C 34246 hPa NNW 32.8 km/h 32.8 km/h 83 % 0 mm 5.0 W/m2 OVC
08:27 -13.4 °C -15.1 °C 34246 hPa WNW 44.7 km/h 44.7 km/h 82 % 0 mm 7.0 W/m2 BKN
08:32 -13.2 °C -14.9 °C 34246 hPa NW 41.7 km/h 41.7 km/h 80 % 0 mm 11.0 W/m2 BKN
08:37 -12.8 °C -14.9 °C 34256.2 hPa NNW 50.7 km/h 50.7 km/h 77 % 0 mm 12.0 W/m2 BKN
08:42 -12.8 °C -15.1 °C 34256.2 hPa NW 53.6 km/h 53.6 km/h 76 % 0 mm 16.0 W/m2 BKN
08:47 -12.8 °C -15.2 °C 34256.2 hPa NNW 47.6 km/h 47.6 km/h 75 % 0 mm 19.0 W/m2 BKN
08:52 -12.8 °C -15.2 °C 34256.2 hPa NW 38.8 km/h 38.8 km/h 75 % 0 mm 28.0 W/m2 BKN
08:57 -12.8 °C -15.2 °C 34256.2 hPa NW 47.6 km/h 47.6 km/h 75 % 0 mm 37.0 W/m2 BKN
09:07 -12.8 °C -15.3 °C 34256.2 hPa NNW 29.8 km/h 29.8 km/h 74 % 0 mm 56.0 W/m2 SCT
09:12 -12.8 °C -15.4 °C 34256.2 hPa NNW 29.8 km/h 29.8 km/h 73 % 0 mm 60.0 W/m2 SCT
09:17 -12.8 °C -15.4 °C 34256.2 hPa NNW 23.3 km/h 23.3 km/h 73 % 0 mm 77.0 W/m2 FEW
09:22 -12.8 °C -15.5 °C 34269.7 hPa NW 29.8 km/h 29.8 km/h 72 % 0 mm 90.0 W/m2 FEW
09:27 -12.6 °C -15.3 °C 34269.7 hPa NW 29.8 km/h 29.8 km/h 71 % 0 mm 84.0 W/m2 CLR
09:32 -12.6 °C -15.4 °C 34269.7 hPa NW 29.8 km/h 29.8 km/h 70 % 0 mm 118.0 W/m2 CLR
09:37 -12.6 °C -15.4 °C 34269.7 hPa NW 29.8 km/h 29.8 km/h 70 % 0 mm 134.0 W/m2 CLR
09:42 -12.6 °C -15.5 °C 34269.7 hPa NW 29.8 km/h 29.8 km/h 69 % 0 mm 132.0 W/m2 CLR
09:47 -12.6 °C -15.5 °C 34269.7 hPa NW 29.8 km/h 29.8 km/h 69 % 0 mm 156.0 W/m2 CLR
09:52 -12.2 °C -15.2 °C 34269.7 hPa NW 35.7 km/h 35.7 km/h 69 % 0 mm 171.0 W/m2 CLR
09:57 -12.2 °C -15.4 °C 34269.7 hPa NNW 35.7 km/h 35.7 km/h 67 % 0 mm 127.0 W/m2 CLR
10:02 -12.2 °C -15.4 °C 34269.7 hPa NW 32.8 km/h 32.8 km/h 67 % 0 mm 130.0 W/m2 CLR
10:07 -11.9 °C -15.2 °C 34279.9 hPa NNW 32.8 km/h 32.8 km/h 67 % 0 mm 192.0 W/m2 CLR
10:12 -11.9 °C -15.2 °C 34279.9 hPa NNW 38.8 km/h 38.8 km/h 67 % 0 mm 211.0 W/m2 CLR
10:17 -11.9 °C -15.3 °C 34279.9 hPa NNW 38.8 km/h 38.8 km/h 66 % 0 mm 237.0 W/m2 CLR
10:22 -11.9 °C -15.4 °C 34279.9 hPa NNW 56.6 km/h 56.6 km/h 65 % 0 mm 250.0 W/m2 CLR
10:27 -11.9 °C -15.4 °C 34279.9 hPa NNW 62.6 km/h 62.6 km/h 65 % 0 mm 262.0 W/m2 CLR
10:32 -11.9 °C -15.4 °C 34279.9 hPa NNW 44.7 km/h 44.7 km/h 65 % 0 mm 276.0 W/m2 CLR
10:37 -11.9 °C -15.4 °C 34293.4 hPa North 50.7 km/h 50.7 km/h 65 % 0 mm 304.0 W/m2 CLR
10:42 -11.6 °C -15 °C 34293.4 hPa North 50.7 km/h 50.7 km/h 66 % 0 mm 332.0 W/m2 CLR
10:47 -11.9 °C -15.3 °C 34303.6 hPa NNE 46.7 km/h 46.7 km/h 66 % 0 mm 364.0 W/m2 CLR
10:52 -11.9 °C -15.2 °C 34303.6 hPa North 59.5 km/h 59.5 km/h 67 % 0 mm 388.0 W/m2 CLR
10:57 -11.9 °C -15.3 °C 34303.6 hPa North 62.6 km/h 62.6 km/h 66 % 0 mm 197.0 W/m2 CLR
11:02 -11.9 °C -15.2 °C 34303.6 hPa North 50.7 km/h 50.7 km/h 67 % 0 mm 185.0 W/m2 CLR
11:07 -11.9 °C -15.1 °C 34303.6 hPa North 56.6 km/h 56.6 km/h 68 % 0 mm 230.0 W/m2 CLR
11:13 -11.9 °C -15.1 °C 34303.6 hPa North 50.7 km/h 50.7 km/h 68 % 0 mm 499.0 W/m2 CLR
11:18 -11.6 °C -15 °C 34303.6 hPa North 68.6 km/h 68.6 km/h 66 % 0 mm 221.0 W/m2 CLR
11:23 -11.9 °C -15.3 °C 34303.6 hPa North 59.5 km/h 59.5 km/h 66 % 0 mm 320.0 W/m2 CLR
11:28 -11.6 °C -14.9 °C 34303.6 hPa NNW 41.7 km/h 41.7 km/h 67 % 0 mm 236.0 W/m2 CLR
11:33 -11.9 °C -15.3 °C 34303.6 hPa NNW 47.6 km/h 47.6 km/h 66 % 0 mm 111.0 W/m2 CLR
11:38 -12.2 °C -15.4 °C 34303.6 hPa North 59.5 km/h 59.5 km/h 67 % 0 mm 214.0 W/m2 CLR
11:43 -11.9 °C -15.2 °C 34303.6 hPa North 59.5 km/h 59.5 km/h 67 % 0 mm 104.0 W/m2 CLR
11:48 -12.2 °C -15.4 °C 34303.6 hPa North 59.5 km/h 59.5 km/h 68 % 0 mm 86.0 W/m2 CLR
11:53 -12.2 °C -15.2 °C 34303.6 hPa North 53.6 km/h 53.6 km/h 69 % 0 mm 90.0 W/m2 CLR
11:58 -12.6 °C -15.5 °C 34303.6 hPa North 50.7 km/h 50.7 km/h 69 % 0 mm 272.0 W/m2 CLR
12:03 -12.6 °C -15.4 °C 34303.6 hPa NNE 50.7 km/h 50.7 km/h 70 % 0 mm 156.0 W/m2 CLR
12:08 -12.6 °C -15.4 °C 34303.6 hPa North 69.8 km/h 69.8 km/h 70 % 0 mm 190.0 W/m2 CLR
12:13 -12.2 °C -15.1 °C 34303.6 hPa NNW 50.7 km/h 50.7 km/h 70 % 0 mm 204.0 W/m2 CLR
12:18 -12.2 °C -15 °C 34303.6 hPa North 56.6 km/h 56.6 km/h 71 % 0 mm 207.0 W/m2 CLR
12:23 -12.2 °C -15.1 °C 34303.6 hPa NNW 65.5 km/h 65.5 km/h 70 % 0 mm 253.0 W/m2 CLR
12:28 -11.9 °C -14.7 °C 34303.6 hPa NNW 50.7 km/h 50.7 km/h 71 % 0 mm 629.0 W/m2 CLR
12:33 -11.9 °C -14.9 °C 34293.4 hPa North 59.5 km/h 59.5 km/h 69 % 0 mm 197.0 W/m2 CLR
12:38 -11.9 °C -14.9 °C 34293.4 hPa North 41.7 km/h 41.7 km/h 69 % 0 mm 156.0 W/m2 CLR
12:43 -12.2 °C -15.2 °C 34293.4 hPa NNW 44.7 km/h 44.7 km/h 69 % 0 mm 156.0 W/m2 CLR
12:48 -12.2 °C -15.4 °C 34293.4 hPa NNW 56.6 km/h 56.6 km/h 68 % 0 mm 125.0 W/m2 CLR
12:53 -12.2 °C -15.4 °C 34293.4 hPa North 59.5 km/h 59.5 km/h 68 % 0 mm 104.0 W/m2 CLR
12:58 -12.2 °C -15.4 °C 34293.4 hPa North 50.7 km/h 50.7 km/h 67 % 0 mm 95.0 W/m2 CLR
13:03 -12.6 °C -15.9 °C 34279.9 hPa NNW 53.6 km/h 53.6 km/h 66 % 0 mm 113.0 W/m2 CLR
13:08 -12.2 °C -15.4 °C 34279.9 hPa NW 38.8 km/h 38.8 km/h 67 % 0 mm 141.0 W/m2 CLR
13:13 -12.2 °C -15.8 °C 34279.9 hPa NNW 65.5 km/h 65.5 km/h 64 % 0 mm 146.0 W/m2 CLR
13:18 -12.2 °C -15.7 °C 34269.7 hPa NNW 53.6 km/h 53.6 km/h 65 % 0 mm 148.0 W/m2 CLR
13:23 -12.2 °C -15.7 °C 34269.7 hPa NW 41.7 km/h 41.7 km/h 65 % 0 mm 171.0 W/m2 CLR
13:28 -12.2 °C -15.7 °C 34256.2 hPa NNW 38.8 km/h 38.8 km/h 65 % 0 mm 188.0 W/m2 CLR
13:33 -11.9 °C -15.6 °C 34256.2 hPa NW 47.6 km/h 47.6 km/h 64 % 0 mm 267.0 W/m2 CLR
13:38 -11.9 °C -15.8 °C 34256.2 hPa NNW 44.7 km/h 44.7 km/h 62 % 0 mm 443.0 W/m2 CLR
13:43 -11.9 °C -15.8 °C 34256.2 hPa North 54.4 km/h 54.4 km/h 62 % 0 mm 163.0 W/m2 CLR
13:48 -11.9 °C -16.1 °C 34256.2 hPa NNW 59.5 km/h 59.5 km/h 60 % 0 mm 218.0 W/m2 CLR
13:53 -11.9 °C -16.1 °C 34256.2 hPa NW 46.7 km/h 46.7 km/h 60 % 0 mm 227.0 W/m2 CLR
13:58 -11.9 °C -16.2 °C 34256.2 hPa NNW 56.6 km/h 56.6 km/h 59 % 0 mm 197.0 W/m2 CLR
14:03 -11.9 °C -16.2 °C 34256.2 hPa NW 50.7 km/h 50.7 km/h 59 % 0 mm 207.0 W/m2 CLR
14:08 -11.9 °C -16.2 °C 34256.2 hPa NNW 62.6 km/h 62.6 km/h 59 % 0 mm 220.0 W/m2 CLR
14:14 -11.9 °C -16.3 °C 34256.2 hPa NNW 89.3 km/h 89.3 km/h 58 % 0 mm 207.0 W/m2 CLR
14:19 -11.9 °C -16.4 °C 34256.2 hPa NNW 67.3 km/h 67.3 km/h 57 % 0 mm 181.0 W/m2 CLR
14:24 -11.9 °C -16.3 °C 34256.2 hPa NW 67.3 km/h 67.3 km/h 58 % 0 mm 148.0 W/m2 CLR
14:29 -12.2 °C -16.5 °C 34256.2 hPa NNW 68.6 km/h 68.6 km/h 59 % 0 mm 125.0 W/m2 CLR
14:34 -12.2 °C -16.2 °C 34256.2 hPa NNW 65.5 km/h 65.5 km/h 61 % 0 mm 121.0 W/m2 CLR
14:39 -12.6 °C -16.3 °C 34256.2 hPa NNW 64.7 km/h 64.7 km/h 63 % 0 mm 120.0 W/m2 CLR
14:44 -12.6 °C -16.3 °C 34256.2 hPa NNW 69.8 km/h 69.8 km/h 63 % 0 mm 114.0 W/m2 CLR
14:49 -12.6 °C -16.3 °C 34256.2 hPa NW 54.4 km/h 54.4 km/h 63 % 0 mm 118.0 W/m2 CLR
14:54 -12.6 °C -16.2 °C 34256.2 hPa NNW 47.6 km/h 47.6 km/h 64 % 0 mm 109.0 W/m2 CLR
14:59 -12.6 °C -16.2 °C 34256.2 hPa NNW 59.5 km/h 59.5 km/h 64 % 0 mm 111.0 W/m2 CLR
15:04 -12.6 °C -16.2 °C 34256.2 hPa NW 47.6 km/h 47.6 km/h 64 % 0 mm 113.0 W/m2 CLR
15:09 -12.6 °C -16.2 °C 34256.2 hPa NNW 59.5 km/h 59.5 km/h 64 % 0 mm 123.0 W/m2 CLR
15:14 -12.6 °C -16.3 °C 34256.2 hPa NNW 56.6 km/h 56.6 km/h 63 % 0 mm 97.0 W/m2 CLR
15:19 -12.6 °C -16.2 °C 34256.2 hPa NNW 41.7 km/h 41.7 km/h 64 % 0 mm 276.0 W/m2 CLR
15:24 -12.2 °C -16.1 °C 34256.2 hPa NW 56.6 km/h 56.6 km/h 62 % 0 mm 267.0 W/m2 CLR
15:29 -12.2 °C -16.1 °C 34256.2 hPa NNW 44.7 km/h 44.7 km/h 62 % 0 mm 262.0 W/m2 CLR
15:34 -11.9 °C -15.9 °C 34256.2 hPa NW 62.6 km/h 62.6 km/h 61 % 0 mm 227.0 W/m2 CLR
15:39 -11.9 °C -15.9 °C 34256.2 hPa NNW 53.6 km/h 53.6 km/h 61 % 0 mm 239.0 W/m2 CLR
15:44 -11.9 °C -16.2 °C 34256.2 hPa NNW 68.6 km/h 68.6 km/h 59 % 0 mm 214.0 W/m2 CLR
15:49 -12.2 °C -16.6 °C 34269.7 hPa North 68.6 km/h 68.6 km/h 58 % 0 mm 47.0 W/m2 CLR
15:54 -12.6 °C -16.8 °C 34269.7 hPa North 74.5 km/h 74.5 km/h 59 % 0 mm 121.0 W/m2 FEW
15:59 -12.6 °C -16.6 °C 34269.7 hPa NNW 62.6 km/h 62.6 km/h 60 % 0 mm 109.0 W/m2 FEW
16:04 -12.6 °C -16.5 °C 34269.7 hPa North 62.1 km/h 62.1 km/h 61 % 0 mm 97.0 W/m2 CLR
16:09 -12.6 °C -16.5 °C 34269.7 hPa NNW 62.6 km/h 62.6 km/h 61 % 0 mm 90.0 W/m2 CLR
16:19 -12.6 °C -16.4 °C 34269.7 hPa North 50.7 km/h 50.7 km/h 62 % 0 mm 114.0 W/m2 CLR
16:24 -12.6 °C -16.4 °C 34269.7 hPa NNW 59.5 km/h 59.5 km/h 62 % 0 mm 72.0 W/m2 CLR
16:30 -12.8 °C -16.6 °C 34269.7 hPa NNW 51.8 km/h 51.8 km/h 63 % 0 mm 49.0 W/m2 FEW
16:35 -12.8 °C -16.6 °C 34269.7 hPa North 50.7 km/h 50.7 km/h 63 % 0 mm 69.0 W/m2 FEW
16:40 -12.8 °C -16.4 °C 34279.9 hPa North 59.5 km/h 59.5 km/h 64 % 0 mm 39.0 W/m2 BKN
16:45 -12.8 °C -16.4 °C 34279.9 hPa North 50.7 km/h 50.7 km/h 64 % 0 mm 33.0 W/m2 BKN
16:50 -12.8 °C -16.4 °C 34279.9 hPa NNW 62.6 km/h 62.6 km/h 64 % 0 mm 23.0 W/m2 BKN
16:55 -12.8 °C -16.4 °C 34279.9 hPa NNW 56.6 km/h 56.6 km/h 64 % 0 mm 18.0 W/m2 BKN
17:00 -12.8 °C -16.4 °C 34279.9 hPa NNW 67.3 km/h 67.3 km/h 64 % 0 mm 14.0 W/m2 BKN
17:05 -12.8 °C -16.3 °C 34279.9 hPa NNW 56.6 km/h 56.6 km/h 65 % 0 mm 12.0 W/m2 BKN
17:10 -12.8 °C -16.3 °C 34293.4 hPa North 57 km/h 57 km/h 65 % 0 mm 12.0 W/m2 BKN
17:14 -13.2 °C -16.6 °C 34279.9 hPa North 47.6 km/h 47.6 km/h 65 % 0 mm 11.0 W/m2 BKN
17:19 -13.2 °C -16.6 °C 34293.4 hPa North 49.2 km/h 49.2 km/h 65 % 0 mm 9.0 W/m2 BKN
17:20 -13.2 °C -16.6 °C 34293.4 hPa NNW 46.7 km/h 46.7 km/h 65 % 0 mm 9.0 W/m2 BKN
17:25 -13.2 °C -16.6 °C 34293.4 hPa North 50.7 km/h 50.7 km/h 65 % 0 mm 7.0 W/m2 BKN
17:30 -13.2 °C -16.6 °C 34293.4 hPa NNW 44.7 km/h 44.7 km/h 65 % 0 mm 0.0 W/m2 OVC
17:35 -13.2 °C -16.6 °C 34293.4 hPa North 35.7 km/h 35.7 km/h 65 % 0 mm 0.0 W/m2 OVC
17:40 -13.4 °C -16.9 °C 34293.4 hPa NNW 38.8 km/h 38.8 km/h 65 % 0 mm 0.0 W/m2 OVC
17:45 -13.4 °C -16.8 °C 34293.4 hPa NW 33.6 km/h 33.6 km/h 66 % 0 mm 0.0 W/m2 CLR
17:47 -13.4 °C -16.8 °C 34293.4 hPa NNW 26.9 km/h 26.9 km/h 66 % 0 mm 0.0 W/m2 CLR
17:50 -13.4 °C -16.8 °C 34293.4 hPa NNW 29.8 km/h 29.8 km/h 66 % 0 mm 0.0 W/m2 CLR
17:55 -13.4 °C -16.8 °C 34293.4 hPa NNW 20.9 km/h 20.9 km/h 66 % 0 mm 0.0 W/m2 CLR
18:00 -13.4 °C -16.6 °C 34303.6 hPa NNW 25.9 km/h 25.9 km/h 67 % 0 mm 0.0 W/m2 CLR
18:05 -13.8 °C -16.9 °C 34303.6 hPa NNW 29.8 km/h 29.8 km/h 67 % 0 mm 0.0 W/m2 CLR
18:10 -13.8 °C -17.1 °C 34303.6 hPa NW 35.7 km/h 35.7 km/h 66 % 0 mm 0.0 W/m2 CLR
18:15 -13.8 °C -17.1 °C 34303.6 hPa NW 23.8 km/h 23.8 km/h 66 % 0 mm 0.0 W/m2 CLR
18:20 -13.8 °C -17.1 °C 34303.6 hPa NNW 31.1 km/h 31.1 km/h 66 % 0 mm 0.0 W/m2 CLR
18:25 -13.8 °C -17.1 °C 34313.7 hPa North 41.4 km/h 41.4 km/h 66 % 0 mm 0.0 W/m2 CLR
18:30 -13.8 °C -17.2 °C 34313.7 hPa North 41.7 km/h 41.7 km/h 65 % 0 mm 0.0 W/m2 CLR
18:35 -13.4 °C -16.9 °C 34313.7 hPa North 41.4 km/h 41.4 km/h 65 % 0 mm 0.0 W/m2 CLR
18:40 -13.4 °C -16.9 °C 34313.7 hPa North 29.8 km/h 29.8 km/h 65 % 0 mm 0.0 W/m2 CLR
18:45 -13.4 °C -16.9 °C 34313.7 hPa NNW 38.8 km/h 38.8 km/h 65 % 0 mm 0.0 W/m2 CLR
18:50 -13.4 °C -16.9 °C 34313.7 hPa NNW 29.8 km/h 29.8 km/h 65 % 0 mm 0.0 W/m2 CLR
18:55 -13.8 °C -17.2 °C 34313.7 hPa NNW 32.8 km/h 32.8 km/h 65 % 0 mm 0.0 W/m2 CLR
19:00 -13.8 °C -17.1 °C 34313.7 hPa NNW 26.9 km/h 26.9 km/h 66 % 0 mm 0.0 W/m2 CLR
19:05 -13.8 °C -17.1 °C 34327.3 hPa NNW 41.7 km/h 41.7 km/h 66 % 0 mm 0.0 W/m2 CLR
19:10 -13.8 °C -17.1 °C 34313.7 hPa NNW 38.8 km/h 38.8 km/h 66 % 0 mm 0.0 W/m2 CLR
19:15 -13.8 °C -17.1 °C 34327.3 hPa NW 44.7 km/h 44.7 km/h 66 % 0 mm 0.0 W/m2 CLR
19:20 -13.8 °C -17.1 °C 34327.3 hPa WNW 29.8 km/h 29.8 km/h 66 % 0 mm 0.0 W/m2 CLR
19:25 -13.8 °C -17.1 °C 34327.3 hPa NW 29.8 km/h 29.8 km/h 66 % 0 mm 0.0 W/m2 CLR
19:30 -13.8 °C -17.1 °C 34327.3 hPa NW 35.7 km/h 35.7 km/h 66 % 0 mm 0.0 W/m2 CLR
19:35 -13.8 °C -16.9 °C 34327.3 hPa WNW 38.8 km/h 38.8 km/h 67 % 0 mm 0.0 W/m2 CLR
19:40 -13.8 °C -16.9 °C 34327.3 hPa WNW 25.9 km/h 25.9 km/h 67 % 0 mm 0.0 W/m2 CLR
19:46 -14.1 °C -17.3 °C 34327.3 hPa WNW 26.9 km/h 26.9 km/h 67 % 0 mm 0.0 W/m2 CLR
19:51 -14.1 °C -17.3 °C 34327.3 hPa NW 29.8 km/h 29.8 km/h 67 % 0 mm 0.0 W/m2 CLR
19:56 -14.1 °C -17.3 °C 34337.4 hPa NNW 29.8 km/h 29.8 km/h 67 % 0 mm 0.0 W/m2 CLR
20:01 -14.1 °C -17.3 °C 34337.4 hPa North 32.8 km/h 32.8 km/h 67 % 0 mm 0.0 W/m2 CLR
20:06 -14.1 °C -17.3 °C 34337.4 hPa WNW 35.7 km/h 35.7 km/h 67 % 0 mm 0.0 W/m2 CLR
20:16 -14.1 °C -17.3 °C 34347.6 hPa NW 32.8 km/h 32.8 km/h 66 % 0 mm 0.0 W/m2 CLR
20:21 -14.1 °C -17.3 °C 34347.6 hPa NNW 23.8 km/h 23.8 km/h 66 % 0 mm 0.0 W/m2 CLR
20:24 -14.1 °C -17.3 °C 34361.1 hPa NNW 26.9 km/h 26.9 km/h 67 % 0 mm 0.0 W/m2 CLR
20:29 -14.1 °C -17.3 °C 34361.1 hPa NNW 26.9 km/h 26.9 km/h 67 % 0 mm 0.0 W/m2 CLR
20:35 -14.1 °C -17.3 °C 34361.1 hPa NNW 36.2 km/h 36.2 km/h 67 % 0 mm 0.0 W/m2 CLR
20:40 -14.4 °C -17.6 °C 34361.1 hPa NW 29.8 km/h 29.8 km/h 67 % 0 mm 0.0 W/m2 CLR
20:45 -14.4 °C -17.6 °C 34361.1 hPa NW 23.8 km/h 23.8 km/h 67 % 0 mm 0.0 W/m2 CLR
20:50 -14.4 °C -17.6 °C 34371.3 hPa NW 28.5 km/h 28.5 km/h 67 % 0 mm 0.0 W/m2 CLR
20:55 -14.4 °C -17.6 °C 34371.3 hPa NW 32.8 km/h 32.8 km/h 67 % 0 mm 0.0 W/m2 CLR
21:00 -14.4 °C -17.7 °C 34371.3 hPa NW 31.1 km/h 31.1 km/h 66 % 0 mm 0.0 W/m2 CLR
21:05 -14.4 °C -17.7 °C 34371.3 hPa NW 32.8 km/h 32.8 km/h 66 % 0 mm 0.0 W/m2 CLR
21:10 -14.4 °C -17.6 °C 34371.3 hPa NW 23.8 km/h 23.8 km/h 67 % 0 mm 0.0 W/m2 CLR
21:15 -14.4 °C -17.6 °C 34371.3 hPa NW 32.8 km/h 32.8 km/h 67 % 0 mm 0.0 W/m2 CLR
21:20 -14.4 °C -17.6 °C 34371.3 hPa NNW 35.7 km/h 35.7 km/h 67 % 0 mm 0.0 W/m2 CLR
21:25 -14.4 °C -17.6 °C 34384.8 hPa NW 29.8 km/h 29.8 km/h 67 % 0 mm 0.0 W/m2 CLR
21:30 -14.1 °C -17.3 °C 34384.8 hPa NW 35.7 km/h 35.7 km/h 67 % 0 mm 0.0 W/m2 CLR
21:35 -14.4 °C -17.4 °C 34384.8 hPa NW 38.8 km/h 38.8 km/h 68 % 0 mm 0.0 W/m2 CLR
21:40 -14.1 °C -17.1 °C 34371.3 hPa NW 35.7 km/h 38.6 km/h 68 % 0 mm 0.0 W/m2 CLR
21:45 -14.4 °C -17.4 °C 34371.3 hPa NW 44.7 km/h 44.7 km/h 68 % 0 mm 0.0 W/m2 CLR
21:50 -14.4 °C -17.4 °C 34371.3 hPa NW 50.7 km/h 50.7 km/h 68 % 0 mm 0.0 W/m2 CLR
21:55 -14.1 °C -17.1 °C 34384.8 hPa NW 38.8 km/h 38.8 km/h 68 % 0 mm 0.0 W/m2 CLR
22:05 -14.1 °C -17 °C 34371.3 hPa NNW 47.6 km/h 47.6 km/h 69 % 0 mm 0.0 W/m2 CLR
22:10 -14.1 °C -17 °C 34384.8 hPa NW 53.6 km/h 53.6 km/h 69 % 0 mm 0.0 W/m2 CLR
22:15 -14.1 °C -17 °C 34384.8 hPa NNW 50.7 km/h 50.7 km/h 69 % 0 mm 0.0 W/m2 CLR
22:20 -14.1 °C -17 °C 34384.8 hPa NW 47.6 km/h 47.6 km/h 69 % 0 mm 0.0 W/m2 CLR
22:25 -14.4 °C -17.3 °C 34371.3 hPa NW 50.7 km/h 50.7 km/h 69 % 0 mm 0.0 W/m2 CLR
22:30 -14.1 °C -17 °C 34384.8 hPa NNW 44.7 km/h 44.7 km/h 69 % 0 mm 0.0 W/m2 CLR
22:35 -14.1 °C -16.9 °C 34384.8 hPa NW 47.6 km/h 47.6 km/h 70 % 0 mm 0.0 W/m2 CLR
22:40 -14.1 °C -16.9 °C 34384.8 hPa NW 41.7 km/h 41.7 km/h 70 % 0 mm 0.0 W/m2 CLR
22:45 -14.1 °C -16.9 °C 34384.8 hPa NW 50.7 km/h 50.7 km/h 70 % 0 mm 0.0 W/m2 CLR
22:50 -14.1 °C -16.8 °C 34395 hPa NNW 44.7 km/h 44.7 km/h 71 % 0 mm 0.0 W/m2 CLR
22:55 -14.1 °C -16.8 °C 34395 hPa NW 36.2 km/h 36.2 km/h 71 % 0 mm 0.0 W/m2 CLR
23:00 -14.1 °C -16.8 °C 34395 hPa NW 41.7 km/h 41.7 km/h 71 % 0 mm 0.0 W/m2 CLR
23:05 -14.1 °C -16.7 °C 34395 hPa NW 35.7 km/h 35.7 km/h 72 % 0 mm 0.0 W/m2 CLR
23:09 -14.4 °C -17 °C 34395 hPa North 41.7 km/h 41.7 km/h 72 % 0 mm 0.0 W/m2 CLR
23:14 -14.4 °C -17 °C 34405.1 hPa North 38.8 km/h 38.8 km/h 72 % 0 mm 0.0 W/m2 CLR
23:19 -14.4 °C -16.9 °C 34395 hPa NW 41.7 km/h 41.7 km/h 73 % 0 mm 0.0 W/m2 CLR
23:20 -14.4 °C -16.9 °C 34395 hPa NNW 41.7 km/h 41.7 km/h 73 % 0 mm 0.0 W/m2 CLR
23:21 -14.4 °C -16.9 °C 34395 hPa NNW 50.7 km/h 50.7 km/h 73 % 0 mm 0.0 W/m2 CLR
23:26 -14.4 °C -16.9 °C 34395 hPa NNW 44.7 km/h 44.7 km/h 73 % 0 mm 0.0 W/m2 CLR
23:31 -14.4 °C -16.9 °C 34395 hPa North 32.8 km/h 32.8 km/h 73 % 0 mm 0.0 W/m2 CLR
23:33 -14.4 °C -16.8 °C 34395 hPa NW 53.6 km/h 53.6 km/h 74 % 0 mm 0.0 W/m2 CLR
23:37 -14.4 °C -16.8 °C 34405.1 hPa NNW 56.6 km/h 56.6 km/h 74 % 0 mm 0.0 W/m2 CLR
23:42 -14.4 °C -16.8 °C 34405.1 hPa NNW 59.5 km/h 59.5 km/h 74 % 0 mm 0.0 W/m2 CLR
23:43 -14.4 °C -16.8 °C 34405.1 hPa NW 56.6 km/h 56.6 km/h 74 % 0 mm 0.0 W/m2 CLR
23:49 -14.4 °C -16.9 °C 34405.1 hPa NW 44.7 km/h 44.7 km/h 73 % 0 mm 0.0 W/m2 CLR
23:50 -14.4 °C -16.9 °C 34405.1 hPa NW 41.7 km/h 41.7 km/h 73 % 0 mm 0.0 W/m2 CLR
23:55 -14.4 °C -16.8 °C 34405.1 hPa NNW 54.4 km/h 54.4 km/h 74 % 0 mm 0.0 W/m2 CLR
23:56 -14.4 °C -16.8 °C 34405.1 hPa WNW 38.8 km/h 40.7 km/h 74 % 0 mm 0.0 W/m2 CLR
Lo Temps de Massalio
Compliments of Weather Underground - 1.25 mb